Chestline, Illinois
Current Conditions -  °F | °C
As of 7:08 PM on Sunday 23 Nov 2014 (Local Time) from KUIN Reporting Station
Moderate Fog Moderate Fog  
Wind Chill: 52°   Ceiling: 200
Heat Index: 52°   Visibility: 0.25mi
Dew Point: 51°   Wind: 5mph
Humidity: 97%   Direction: 210°SSW
Pressure: 29.26"   Gusts: NA
Location:  39.8875°N, 91.0352°W
Report Text: KUIN 240108Z AUTO 21004KT 1/4SM FG VV002 11/11 A2926 RMK AO2 T01110106
Loading
Personal Weather Stations






























Interactive Weather Map New forecast layout! Learn more

10-Day Weather Forecast

Advertisements
Track Severe Weather on mobile